Time;durP1;ratioP1;P1;durP2;ratioP2;P2;SDS_P1;SDS_P2;PMS_P1;PMS_P2;Temp;Humidity;BMP_temperature;BMP_pressure;BME280_temperature;BME280_humidity;BME280_pressure;Samples;Min_cycle;Max_cycle;Signal;HPM_P1;HPM_P2
2023/05/20 00:01:46;;;;;;;;;;;;;;;14.49;100.00;-18417.75;5002864;28;20036;-85
2023/05/20 00:04:11;;;;;;;;;;;;;;;14.47;100.00;-18417.22;5006756;28;20295;-84
2023/05/20 00:06:39;;;;;;;;;;;;;;;14.40;100.00;-18415.28;4994112;28;20343;-84
2023/05/20 00:09:05;;;;;;;;;;;;;;;14.38;100.00;-18414.88;5004039;28;19922;-84
2023/05/20 00:11:30;;;;;;;;;;;;;;;14.46;100.00;-18416.94;4996374;28;19921;-84
2023/05/20 00:13:55;;;;;;;;;;;;;;;14.49;100.00;-18417.75;4989087;28;19926;-84
2023/05/20 00:16:20;;;;;;;;;;;;;;;14.63;100.00;-18421.47;5009539;28;20056;-84
2023/05/20 00:18:46;;;;;;;;;;;;;;;14.70;100.00;-18423.25;4988897;28;19924;-84
2023/05/20 00:21:11;;;;;;;;;;;;;;;14.77;100.00;-18425.28;4996285;28;19924;-84
2023/05/20 00:23:36;;;;;;;;;;;;;;;14.60;100.00;-18420.78;4997599;28;19918;-84
2023/05/20 00:26:01;;;;;;;;;;;;;;;14.76;100.00;-18425.03;4990471;28;20020;-84
2023/05/20 00:28:27;;;;;;;;;;;;;;;14.62;100.00;-18421.31;4975201;28;19918;-84
2023/05/20 00:30:53;;;;;;;;;;;;;;;14.75;100.00;-18424.75;5012040;28;19918;-84
2023/05/20 00:33:18;;;;;;;;;;;;;;;14.65;100.00;-18422.00;4988243;28;19924;-84
2023/05/20 00:35:43;;;;;;;;;;;;;;;14.28;100.00;-18412.00;4997698;28;20005;-84
2023/05/20 00:38:08;;;;;;;;;;;;;;;14.16;100.00;-18409.00;4991052;28;19922;-84
2023/05/20 00:40:34;;;;;;;;;;;;;;;14.39;100.00;-18415.03;4993112;28;19996;-84
2023/05/20 00:42:59;;;;;;;;;;;;;;;14.38;100.00;-18414.88;4997287;28;19960;-85
2023/05/20 00:45:24;;;;;;;;;;;;;;;14.51;100.00;-18418.16;4998300;28;19971;-85
2023/05/20 00:47:50;;;;;;;;;;;;;;;14.49;100.00;-18417.75;5001437;28;19929;-84
2023/05/20 00:50:15;;;;;;;;;;;;;;;14.54;100.00;-18419.00;5000408;28;20393;-84
2023/05/20 00:52:43;;;;;;;;;;;;;;;14.54;100.00;-18419.13;5000955;28;19917;-84
2023/05/20 00:55:09;;;;;;;;;;;;;;;14.45;100.00;-18416.81;5009059;28;19921;-84
2023/05/20 00:57:34;;;;;;;;;;;;;;;14.67;100.00;-18422.56;5008943;28;20328;-84
2023/05/20 01:00:00;;;;;;;;;;;;;;;14.59;100.00;-18420.38;5000800;28;19924;-84
2023/05/20 01:02:25;;;;;;;;;;;;;;;14.54;100.00;-18419.13;5003643;28;19929;-84
2023/05/20 01:04:50;;;;;;;;;;;;;;;14.59;100.00;-18420.50;5006224;28;19941;-84
2023/05/20 01:07:16;;;;;;;;;;;;;;;14.64;100.00;-18421.88;5011122;28;19929;-84
2023/05/20 01:09:42;;;;;;;;;;;;;;;14.69;100.00;-18422.97;5005164;28;20380;-84
2023/05/20 01:12:10;;;;;;;;;;;;;;;14.59;100.00;-18420.50;5014423;28;19971;-84
2023/05/20 01:14:39;;;;;;;;;;;;;;;14.77;100.00;-18425.16;5011725;28;19925;-84
2023/05/20 01:17:09;;;;;;;;;;;;;;;14.93;100.00;-18429.53;5014559;28;20004;-84
2023/05/20 01:19:38;;;;;;;;;;;;;;;14.77;100.00;-18425.28;5012625;28;20012;-84
2023/05/20 01:22:05;;;;;;;;;;;;;;;14.32;100.00;-18413.09;5012634;28;19917;-84
2023/05/20 01:24:30;;;;;;;;;;;;;;;14.48;100.00;-18417.34;5013456;28;19921;-83
2023/05/20 01:26:57;;;;;;;;;;;;;;;14.60;100.00;-18420.78;5012378;28;19922;-84
2023/05/20 01:29:22;;;;;;;;;;;;;;;14.55;100.00;-18419.28;5010194;28;20019;-84
2023/05/20 01:31:47;;;;;;;;;;;;;;;14.43;100.00;-18416.13;5009892;28;20015;-84
2023/05/20 01:34:13;;;;;;;;;;;;;;;14.35;100.00;-18413.94;5009846;28;20307;-84
2023/05/20 01:36:38;;;;;;;;;;;;;;;14.33;100.00;-18413.38;4998084;28;20380;-84
2023/05/20 01:39:05;;;;;;;;;;;;;;;14.38;100.00;-18414.75;4999432;28;19932;-83
2023/05/20 01:41:30;;;;;;;;;;;;;;;14.43;100.00;-18416.13;4999076;28;20562;-84
2023/05/20 01:43:56;;;;;;;;;;;;;;;14.44;100.00;-18416.53;4996265;28;19937;-84
2023/05/20 01:46:21;;;;;;;;;;;;;;;14.43;100.00;-18416.25;5011233;28;20008;-83
2023/05/20 01:48:46;;;;;;;;;;;;;;;14.47;100.00;-18417.06;4996685;28;19988;-84
2023/05/20 01:51:11;;;;;;;;;;;;;;;14.42;100.00;-18415.84;5000262;28;20204;-84
2023/05/20 01:53:37;;;;;;;;;;;;;;;14.33;100.00;-18413.38;4994892;28;19929;-83
2023/05/20 01:56:04;;;;;;;;;;;;;;;14.50;100.00;-18417.91;5000274;28;19922;-81
2023/05/20 01:58:29;;;;;;;;;;;;;;;14.47;100.00;-18417.22;4992686;28;20537;-81
2023/05/20 02:00:54;;;;;;;;;;;;;;;14.36;100.00;-18414.19;4995586;28;19937;-81
2023/05/20 02:03:20;;;;;;;;;;;;;;;14.30;100.00;-18412.69;4998784;28;20285;-82
2023/05/20 02:05:45;;;;;;;;;;;;;;;14.27;100.00;-18411.88;4998141;28;19983;-81
2023/05/20 02:08:10;;;;;;;;;;;;;;;14.27;100.00;-18411.88;5000765;28;19929;-81
2023/05/20 02:10:35;;;;;;;;;;;;;;;14.21;100.00;-18410.38;5000471;28;20400;-83
2023/05/20 02:13:01;;;;;;;;;;;;;;;14.10;100.00;-18407.22;4999411;28;19949;-81
2023/05/20 02:15:26;;;;;;;;;;;;;;;14.03;100.00;-18405.31;5000584;28;19925;-83
2023/05/20 02:17:51;;;;;;;;;;;;;;;13.91;100.00;-18402.28;4998829;28;19960;-81
2023/05/20 02:20:16;;;;;;;;;;;;;;;13.83;100.00;-18400.09;5000484;28;20013;-82
2023/05/20 02:22:42;;;;;;;;;;;;;;;13.82;100.00;-18399.69;4997629;28;20438;-83
2023/05/20 02:25:08;;;;;;;;;;;;;;;13.86;100.00;-18400.78;5003617;28;20034;-83
2023/05/20 02:27:33;;;;;;;;;;;;;;;13.82;100.00;-18399.69;4997393;28;20338;-83
2023/05/20 02:29:59;;;;;;;;;;;;;;;13.74;100.00;-18397.75;4994369;28;19933;-81
2023/05/20 02:32:26;;;;;;;;;;;;;;;13.57;100.00;-18393.09;4993385;28;19921;-83
2023/05/20 02:34:52;;;;;;;;;;;;;;;13.66;100.00;-18395.56;4995411;28;19926;-81
2023/05/20 02:37:18;;;;;;;;;;;;;;;13.84;100.00;-18400.38;5001462;28;20030;-82
2023/05/20 02:39:43;;;;;;;;;;;;;;;13.89;100.00;-18401.59;4995978;28;19941;-82
2023/05/20 02:42:08;;;;;;;;;;;;;;;13.82;100.00;-18399.69;4997621;28;20381;-81
2023/05/20 02:44:33;;;;;;;;;;;;;;;13.82;100.00;-18399.81;4996969;28;19997;-83
2023/05/20 02:46:59;;;;;;;;;;;;;;;13.80;100.00;-18399.28;4997126;28;20025;-83
2023/05/20 02:49:24;;;;;;;;;;;;;;;13.90;100.00;-18401.88;4993834;28;19930;-83
2023/05/20 02:51:49;;;;;;;;;;;;;;;13.85;100.00;-18400.50;4997311;28;19921;-83
2023/05/20 02:54:14;;;;;;;;;;;;;;;13.70;100.00;-18396.53;4995098;28;20491;-83
2023/05/20 02:56:40;;;;;;;;;;;;;;;13.63;100.00;-18394.75;4995335;28;19921;-82
2023/05/20 02:59:06;;;;;;;;;;;;;;;13.50;100.00;-18391.31;4992670;28;19937;-83
2023/05/20 03:01:34;;;;;;;;;;;;;;;13.56;100.00;-18392.84;5000613;28;19928;-83
2023/05/20 03:03:59;;;;;;;;;;;;;;;13.65;100.00;-18395.31;4995006;28;19921;-84
2023/05/20 03:06:25;;;;;;;;;;;;;;;13.59;100.00;-18393.66;4991992;28;20365;-84
2023/05/20 03:08:50;;;;;;;;;;;;;;;13.47;100.00;-18390.50;4993426;28;19921;-84
2023/05/20 03:11:15;;;;;;;;;;;;;;;13.43;100.00;-18389.28;4998748;28;19922;-84
2023/05/20 03:13:40;;;;;;;;;;;;;;;13.37;100.00;-18387.63;4991941;28;19921;-84
2023/05/20 03:16:05;;;;;;;;;;;;;;;13.39;100.00;-18388.19;4992792;28;19964;-84
2023/05/20 03:18:32;;;;;;;;;;;;;;;13.37;100.00;-18387.75;4997458;28;20013;-84
2023/05/20 03:20:57;;;;;;;;;;;;;;;13.19;100.00;-18382.97;4996347;28;19945;-84
2023/05/20 03:23:22;;;;;;;;;;;;;;;13.21;100.00;-18383.50;4999026;28;19921;-84
2023/05/20 03:25:47;;;;;;;;;;;;;;;13.20;100.00;-18383.09;4994863;28;19925;-84
2023/05/20 03:28:13;;;;;;;;;;;;;;;13.26;100.00;-18384.88;4992472;28;19925;-84
2023/05/20 03:30:38;;;;;;;;;;;;;;;13.17;100.00;-18382.28;5001724;28;19929;-83
2023/05/20 03:33:04;;;;;;;;;;;;;;;13.19;100.00;-18382.81;4998392;28;19926;-84
2023/05/20 03:35:30;;;;;;;;;;;;;;;13.31;100.00;-18386.13;5002108;28;20030;-84
2023/05/20 03:37:55;;;;;;;;;;;;;;;13.12;100.00;-18380.91;4998667;28;20032;-84
2023/05/20 03:40:20;;;;;;;;;;;;;;;13.10;100.00;-18380.50;4994157;28;19922;-84
2023/05/20 03:42:46;;;;;;;;;;;;;;;13.10;100.00;-18380.50;4993991;28;19926;-84
2023/05/20 03:45:11;;;;;;;;;;;;;;;13.02;100.00;-18378.44;4993588;28;19921;-84
2023/05/20 03:47:36;;;;;;;;;;;;;;;13.00;100.00;-18377.88;4998559;28;19925;-84
2023/05/20 03:50:02;;;;;;;;;;;;;;;13.11;100.00;-18380.78;4995800;28;19926;-85
2023/05/20 03:52:27;;;;;;;;;;;;;;;13.14;100.00;-18381.59;4992059;28;19930;-84
2023/05/20 03:54:52;;;;;;;;;;;;;;;13.15;100.00;-18381.88;4995977;28;19969;-84
2023/05/20 03:57:18;;;;;;;;;;;;;;;13.24;100.00;-18384.34;4999092;28;19996;-84
2023/05/20 03:59:43;;;;;;;;;;;;;;;13.28;100.00;-18385.28;4990238;28;20021;-83
2023/05/20 04:02:09;;;;;;;;;;;;;;;13.22;100.00;-18383.66;4993814;28;19922;-81
2023/05/20 04:04:35;;;;;;;;;;;;;;;13.12;100.00;-18380.91;4994598;28;19949;-83
2023/05/20 04:07:00;;;;;;;;;;;;;;;12.98;100.00;-18377.22;4995525;28;19926;-84
2023/05/20 04:09:25;;;;;;;;;;;;;;;12.99;100.00;-18377.63;4998906;28;19929;-84
2023/05/20 04:11:51;;;;;;;;;;;;;;;12.95;100.00;-18376.38;4995687;28;19921;-84
2023/05/20 04:14:16;;;;;;;;;;;;;;;13.00;100.00;-18377.75;4993819;28;19984;-84
2023/05/20 04:16:42;;;;;;;;;;;;;;;12.98;100.00;-18377.22;4996110;28;19932;-84
2023/05/20 04:19:07;;;;;;;;;;;;;;;12.91;100.00;-18375.41;4998054;28;20410;-84
2023/05/20 04:21:32;;;;;;;;;;;;;;;12.88;100.00;-18374.75;4991416;28;19968;-84
2023/05/20 04:23:58;;;;;;;;;;;;;;;12.93;100.00;-18375.84;5011255;28;19922;-83
2023/05/20 04:26:23;;;;;;;;;;;;;;;13.02;100.00;-18378.31;4996751;28;19926;-84
2023/05/20 04:28:48;;;;;;;;;;;;;;;13.06;100.00;-18379.41;4992069;28;19922;-85
2023/05/20 04:31:14;;;;;;;;;;;;;;;13.14;100.00;-18381.47;4994688;28;20041;-84
2023/05/20 04:33:39;;;;;;;;;;;;;;;13.15;100.00;-18381.88;4999041;28;19989;-84
2023/05/20 04:36:10;;;;;;;;;;;;;;;13.26;100.00;-18384.88;4993731;28;19922;-84
2023/05/20 04:38:36;;;;;;;;;;;;;;;13.36;100.00;-18387.50;4998977;28;19964;-84
2023/05/20 04:41:01;;;;;;;;;;;;;;;13.53;100.00;-18392.00;5000957;28;20368;-83
2023/05/20 04:43:30;;;;;;;;;;;;;;;13.48;100.00;-18390.66;5001183;28;19951;-85
2023/05/20 04:45:55;;;;;;;;;;;;;;;13.46;100.00;-18390.09;4997054;28;20003;-84
2023/05/20 04:48:21;;;;;;;;;;;;;;;13.49;100.00;-18391.06;5003710;28;19926;-84
2023/05/20 04:50:47;;;;;;;;;;;;;;;13.22;100.00;-18383.66;4996864;28;19934;-84
2023/05/20 04:53:12;;;;;;;;;;;;;;;13.15;100.00;-18381.88;4999759;28;20281;-84
2023/05/20 04:55:38;;;;;;;;;;;;;;;13.20;100.00;-18383.09;5003793;28;19951;-84
2023/05/20 04:58:04;;;;;;;;;;;;;;;13.36;100.00;-18387.34;5008112;28;20134;-84
2023/05/20 05:00:29;;;;;;;;;;;;;;;13.38;100.00;-18387.91;5009327;28;19921;-84
2023/05/20 05:02:55;;;;;;;;;;;;;;;13.41;100.00;-18388.72;5007995;28;19925;-84
2023/05/20 05:05:20;;;;;;;;;;;;;;;13.71;100.00;-18396.81;4998861;28;20408;-84
2023/05/20 05:07:45;;;;;;;;;;;;;;;13.43;100.00;-18389.41;5005507;28;19930;-84
2023/05/20 05:10:11;;;;;;;;;;;;;;;13.39;100.00;-18388.31;5007244;28;19940;-84
2023/05/20 05:12:36;;;;;;;;;;;;;;;13.56;100.00;-18392.84;5002541;28;19928;-84
2023/05/20 05:15:01;;;;;;;;;;;;;;;13.56;100.00;-18392.69;5003614;28;19926;-84
2023/05/20 05:17:27;;;;;;;;;;;;;;;13.35;100.00;-18387.22;5003152;28;20293;-84
2023/05/20 05:19:52;;;;;;;;;;;;;;;13.35;100.00;-18387.06;5001306;28;19951;-85
2023/05/20 05:22:18;;;;;;;;;;;;;;;13.45;100.00;-18389.97;4998295;28;20106;-85
2023/05/20 05:24:43;;;;;;;;;;;;;;;13.54;100.00;-18392.41;4997399;28;20007;-83
2023/05/20 05:27:08;;;;;;;;;;;;;;;13.47;100.00;-18390.50;4997490;28;20355;-84
2023/05/20 05:29:33;;;;;;;;;;;;;;;13.54;100.00;-18392.28;4995524;28;19954;-84
2023/05/20 05:31:58;;;;;;;;;;;;;;;13.63;100.00;-18394.63;4994455;28;19932;-84
2023/05/20 05:34:24;;;;;;;;;;;;;;;13.61;100.00;-18394.22;4995407;28;19922;-84
2023/05/20 05:36:49;;;;;;;;;;;;;;;13.73;100.00;-18397.34;4997397;28;19925;-84
2023/05/20 05:39:14;;;;;;;;;;;;;;;13.82;100.00;-18399.81;5000054;28;20404;-84
2023/05/20 05:41:39;;;;;;;;;;;;;;;13.95;100.00;-18403.25;5000160;28;19968;-83
2023/05/20 05:44:05;;;;;;;;;;;;;;;13.69;100.00;-18396.41;5002528;28;19921;-84
2023/05/20 05:46:31;;;;;;;;;;;;;;;14.00;100.00;-18404.63;4996585;28;19936;-84
2023/05/20 05:48:57;;;;;;;;;;;;;;;14.29;100.00;-18412.28;5013094;28;20064;-83
2023/05/20 05:51:24;;;;;;;;;;;;;;;14.21;100.00;-18410.38;4998599;28;19928;-84
2023/05/20 05:53:49;;;;;;;;;;;;;;;14.58;100.00;-18420.22;4993130;28;20423;-84
2023/05/20 05:56:14;;;;;;;;;;;;;;;14.58;100.00;-18420.09;5013161;28;19965;-84
2023/05/20 05:58:40;;;;;;;;;;;;;;;14.65;100.00;-18422.16;4994534;28;20119;-84
2023/05/20 06:01:05;;;;;;;;;;;;;;;14.73;100.00;-18424.06;4998825;28;19921;-83
2023/05/20 06:03:31;;;;;;;;;;;;;;;14.75;100.00;-18424.59;4999240;28;19922;-84
2023/05/20 06:05:56;;;;;;;;;;;;;;;14.71;100.00;-18423.66;4997512;28;19925;-83
2023/05/20 06:08:22;;;;;;;;;;;;;;;14.80;100.00;-18425.97;4993739;28;19965;-84
2023/05/20 06:10:48;;;;;;;;;;;;;;;15.00;100.00;-18431.44;4995296;28;19926;-84
2023/05/20 06:13:13;;;;;;;;;;;;;;;15.07;100.00;-18433.38;5008478;28;19925;-84
2023/05/20 06:15:39;;;;;;;;;;;;;;;15.22;100.00;-18437.34;5003469;28;19968;-85
2023/05/20 06:18:04;;;;;;;;;;;;;;;15.22;100.00;-18437.34;5002249;28;20016;-84
2023/05/20 06:20:29;;;;;;;;;;;;;;;15.43;100.00;-18442.94;5002161;28;19932;-84
2023/05/20 06:22:54;;;;;;;;;;;;;;;15.55;100.00;-18446.09;5003390;28;19945;-84
2023/05/20 06:25:21;;;;;;;;;;;;;;;15.68;100.00;-18449.50;5004309;28;19921;-85
2023/05/20 06:27:47;;;;;;;;;;;;;;;15.67;100.00;-18449.22;4999596;28;19988;-84
2023/05/20 06:30:12;;;;;;;;;;;;;;;15.69;100.00;-18449.78;5000516;28;19979;-85
2023/05/20 06:32:37;;;;;;;;;;;;;;;15.85;100.00;-18454.16;4999534;28;19925;-85
2023/05/20 06:35:02;;;;;;;;;;;;;;;15.97;100.00;-18457.44;5001563;28;19976;-85
2023/05/20 06:37:28;;;;;;;;;;;;;;;16.14;100.00;-18461.94;5013552;28;19922;-85
2023/05/20 06:39:53;;;;;;;;;;;;;;;16.33;100.00;-18467.00;5001101;28;19922;-85
2023/05/20 06:42:20;;;;;;;;;;;;;;;16.37;100.00;-18468.09;5001357;28;19922;-85
2023/05/20 06:44:45;;;;;;;;;;;;;;;16.51;100.00;-18471.78;5002434;28;19957;-85
2023/05/20 06:47:13;;;;;;;;;;;;;;;16.64;100.00;-18475.22;5002511;28;19957;-84
2023/05/20 06:49:38;;;;;;;;;;;;;;;16.61;100.00;-18474.38;4998602;28;19921;-84
2023/05/20 06:52:04;;;;;;;;;;;;;;;16.72;100.00;-18477.25;4997576;28;19932;-84
2023/05/20 06:54:29;;;;;;;;;;;;;;;16.71;100.00;-18477.13;4998838;28;19966;-84
2023/05/20 06:56:54;;;;;;;;;;;;;;;16.75;100.00;-18478.22;4997249;28;20408;-85
2023/05/20 06:59:19;;;;;;;;;;;;;;;16.75;100.00;-18478.06;4996880;28;19928;-85
2023/05/20 07:01:45;;;;;;;;;;;;;;;16.87;100.00;-18481.50;4996272;28;19936;-85
2023/05/20 07:04:10;;;;;;;;;;;;;;;16.86;100.00;-18481.22;4997437;28;19922;-85
2023/05/20 07:06:36;;;;;;;;;;;;;;;17.02;100.00;-18485.31;4997228;28;19973;-84
2023/05/20 07:09:01;;;;;;;;;;;;;;;17.11;100.00;-18487.78;4992360;28;20451;-84
2023/05/20 07:11:26;;;;;;;;;;;;;;;17.25;100.00;-18491.59;4996897;28;19961;-84
2023/05/20 07:13:52;;;;;;;;;;;;;;;17.44;98.59;-18496.50;4997096;28;19921;-85
2023/05/20 07:16:17;;;;;;;;;;;;;;;17.22;99.96;-18490.78;4996306;28;19921;-84
2023/05/20 07:18:42;;;;;;;;;;;;;;;17.23;100.00;-18490.91;5000692;28;19928;-85
2023/05/20 07:21:08;;;;;;;;;;;;;;;17.40;100.00;-18495.41;4991830;28;19928;-85
2023/05/20 07:23:33;;;;;;;;;;;;;;;17.56;98.26;-18499.78;4996990;28;19936;-84
2023/05/20 07:25:58;;;;;;;;;;;;;;;17.51;98.79;-18498.44;4996945;28;20448;-85
2023/05/20 07:28:23;;;;;;;;;;;;;;;17.51;95.34;-18498.56;4998514;28;20393;-85
2023/05/20 07:30:49;;;;;;;;;;;;;;;17.52;91.90;-18498.69;4991271;28;20344;-85
2023/05/20 07:33:17;;;;;;;;;;;;;;;17.57;92.49;-18500.06;4996527;28;20308;-84
2023/05/20 07:35:43;;;;;;;;;;;;;;;17.52;90.92;-18498.69;4997978;28;19921;-84
2023/05/20 07:38:10;;;;;;;;;;;;;;;17.69;94.47;-18503.34;4993999;28;19933;-85
2023/05/20 07:40:35;;;;;;;;;;;;;;;17.98;91.86;-18510.97;4997377;28;19929;-85
2023/05/20 07:43:00;;;;;;;;;;;;;;;18.22;86.75;-18517.53;4993149;28;19929;-84
2023/05/20 07:45:26;;;;;;;;;;;;;;;18.12;84.16;-18514.81;4996009;28;20195;-85
2023/05/20 07:47:51;;;;;;;;;;;;;;;17.83;86.78;-18506.88;4997715;28;19988;-86
2023/05/20 07:50:16;;;;;;;;;;;;;;;17.95;86.01;-18510.16;4994053;28;20393;-84
2023/05/20 07:52:41;;;;;;;;;;;;;;;17.81;88.31;-18506.63;4997754;28;19921;-85
2023/05/20 07:55:07;;;;;;;;;;;;;;;18.05;86.33;-18512.91;4994843;28;19926;-85
2023/05/20 07:57:32;;;;;;;;;;;;;;;17.94;85.20;-18509.88;4994504;28;19928;-85
2023/05/20 07:59:57;;;;;;;;;;;;;;;18.04;89.37;-18512.63;4995299;28;19922;-85
2023/05/20 08:02:22;;;;;;;;;;;;;;;18.20;87.05;-18516.97;4993035;28;19931;-85
2023/05/20 08:04:47;;;;;;;;;;;;;;;18.13;86.51;-18514.94;4994952;28;20035;-85
2023/05/20 08:07:16;;;;;;;;;;;;;;;18.21;84.40;-18517.25;4993706;28;20032;-85
2023/05/20 08:09:41;;;;;;;;;;;;;;;18.28;85.10;-18519.03;4997607;28;19976;-85
2023/05/20 08:12:06;;;;;;;;;;;;;;;18.45;84.84;-18523.53;4989997;28;20352;-85
2023/05/20 08:14:31;;;;;;;;;;;;;;;18.58;81.95;-18527.06;5006018;28;19991;-85
2023/05/20 08:16:57;;;;;;;;;;;;;;;18.61;81.47;-18527.88;4998376;28;19922;-85
2023/05/20 08:19:25;;;;;;;;;;;;;;;18.67;81.64;-18529.38;4994422;28;19995;-86
2023/05/20 08:21:50;;;;;;;;;;;;;;;19.03;78.76;-18539.06;5009051;28;20384;-89
2023/05/20 08:24:18;;;;;;;;;;;;;;;19.14;75.13;-18541.94;5007557;28;19941;-87
2023/05/20 08:26:44;;;;;;;;;;;;;;;19.37;69.88;-18548.06;5009061;28;19921;-92
2023/05/20 08:29:09;;;;;;;;;;;;;;;19.17;72.64;-18542.88;5005397;28;20316;-91
2023/05/20 08:31:35;;;;;;;;;;;;;;;19.16;71.30;-18542.63;5000776;28;19933;-90
2023/05/20 08:34:00;;;;;;;;;;;;;;;19.09;69.07;-18540.72;4999820;28;20376;-87
2023/05/20 08:36:25;;;;;;;;;;;;;;;19.18;68.48;-18543.03;4993610;28;19928;-85
2023/05/20 08:38:50;;;;;;;;;;;;;;;19.32;68.61;-18546.84;4990866;28;19922;-85
2023/05/20 08:41:16;;;;;;;;;;;;;;;19.62;68.47;-18554.75;4997759;28;19917;-87
2023/05/20 08:43:41;;;;;;;;;;;;;;;19.57;65.43;-18553.38;4993069;28;19971;-88
2023/05/20 08:46:07;;;;;;;;;;;;;;;19.63;65.36;-18554.88;4993028;28;20011;-86
2023/05/20 08:48:34;;;;;;;;;;;;;;;19.67;68.38;-18556.09;4989130;28;19960;-86
2023/05/20 08:51:02;;;;;;;;;;;;;;;19.81;65.61;-18559.91;4983745;28;22133;-85
2023/05/20 08:53:27;;;;;;;;;;;;;;;19.83;62.63;-18560.47;4975316;28;20336;-86
2023/05/20 08:55:54;;;;;;;;;;;;;;;19.84;63.50;-18560.59;4987022;28;20539;-86
2023/05/20 08:58:20;;;;;;;;;;;;;;;20.02;68.75;-18565.38;4971374;28;19926;-86
2023/05/20 09:00:46;;;;;;;;;;;;;;;20.15;63.67;-18568.78;5001043;28;19926;-91
2023/05/20 09:03:11;;;;;;;;;;;;;;;20.17;62.78;-18569.44;4983427;28;20365;-86
2023/05/20 09:05:36;;;;;;;;;;;;;;;20.14;66.85;-18568.50;4983029;28;20417;-85
2023/05/20 09:08:08;;;;;;;;;;;;;;;20.32;66.49;-18573.25;4975475;28;19957;-85
2023/05/20 09:10:34;;;;;;;;;;;;;;;20.23;65.78;-18571.09;4984349;28;19988;-86
2023/05/20 09:13:01;;;;;;;;;;;;;;;20.25;65.02;-18571.50;4985066;28;19968;-85
2023/05/20 09:15:26;;;;;;;;;;;;;;;20.20;61.29;-18570.13;4972839;28;20397;-86
2023/05/20 09:17:52;;;;;;;;;;;;;;;20.18;62.93;-18569.72;4966337;28;19948;-87
2023/05/20 09:20:20;;;;;;;;;;;;;;;20.20;62.37;-18570.13;4989834;28;19924;-85
2023/05/20 09:22:45;;;;;;;;;;;;;;;20.23;61.52;-18571.09;4971062;28;19930;-85
2023/05/20 09:25:12;;;;;;;;;;;;;;;20.06;63.76;-18566.47;4965468;28;19968;-89
2023/05/20 09:27:38;;;;;;;;;;;;;;;20.02;62.19;-18565.38;4972693;28;19926;-87
2023/05/20 09:30:06;;;;;;;;;;;;;;;19.98;64.38;-18564.28;4998877;28;19928;-85
2023/05/20 09:32:31;;;;;;;;;;;;;;;20.17;65.24;-18569.31;5000740;28;19922;-85
2023/05/20 09:34:57;;;;;;;;;;;;;;;20.12;61.89;-18567.97;5002342;28;20550;-85
2023/05/20 09:37:25;;;;;;;;;;;;;;;20.02;62.81;-18565.38;5001982;28;20484;-86
2023/05/20 09:40:02;;;;;;;;;;;;;;;20.02;67.33;-18565.38;5008358;28;20357;-86
2023/05/20 09:42:34;;;;;;;;;;;;;;;19.96;63.41;-18563.88;5005597;28;19921;-86
2023/05/20 09:45:00;;;;;;;;;;;;;;;19.99;62.89;-18564.56;4993001;28;20333;-85
2023/05/20 09:47:26;;;;;;;;;;;;;;;19.79;62.39;-18559.25;5005477;28;19929;-85
2023/05/20 09:49:52;;;;;;;;;;;;;;;19.75;65.81;-18558.28;4995464;28;20462;-86
2023/05/20 09:52:25;;;;;;;;;;;;;;;19.75;65.55;-18558.16;5014523;28;19918;-86
2023/05/20 09:54:55;;;;;;;;;;;;;;;19.77;65.58;-18558.69;5000881;28;19933;-86
2023/05/20 09:57:20;;;;;;;;;;;;;;;19.73;63.97;-18557.75;4997048;28;20343;-85
2023/05/20 09:59:46;;;;;;;;;;;;;;;19.67;68.02;-18555.97;4996651;28;20040;-90
2023/05/20 10:02:12;;;;;;;;;;;;;;;19.71;67.28;-18557.06;4995234;28;20024;-89
2023/05/20 10:04:43;;;;;;;;;;;;;;;19.67;70.14;-18555.97;4995767;28;20020;-85
2023/05/20 10:07:22;;;;;;;;;;;;;;;19.54;69.72;-18552.69;5000879;28;19933;-86
2023/05/20 10:09:50;;;;;;;;;;;;;;;19.54;67.56;-18552.56;5000494;28;20423;-87
2023/05/20 10:12:31;;;;;;;;;;;;;;;19.52;65.49;-18552.16;5004754;28;20364;-85
2023/05/20 10:14:56;;;;;;;;;;;;;;;19.49;69.00;-18551.34;5007088;28;19928;-85
2023/05/20 10:17:22;;;;;;;;;;;;;;;19.60;65.64;-18554.34;5003639;28;20297;-85
2023/05/20 10:19:49;;;;;;;;;;;;;;;19.53;70.43;-18552.28;4996600;28;20164;-86
2023/05/20 10:22:14;;;;;;;;;;;;;;;19.55;68.23;-18552.84;4994142;28;19960;-86
2023/05/20 10:24:43;;;;;;;;;;;;;;;19.75;67.69;-18558.16;4996462;28;19922;-86
2023/05/20 10:27:18;;;;;;;;;;;;;;;19.87;67.03;-18561.28;5000462;28;20469;-85
2023/05/20 10:29:51;;;;;;;;;;;;;;;20.09;68.05;-18567.28;5005266;28;19918;-86
2023/05/20 10:32:23;;;;;;;;;;;;;;;19.93;72.15;-18562.91;5003464;28;19932;-86
2023/05/20 10:35:10;;;;;;;;;;;;;;;20.20;72.32;-18570.13;4991503;28;20336;-88
2023/05/20 10:37:41;;;;;;;;;;;;;;;20.26;64.66;-18571.91;5017139;28;19921;-87
2023/05/20 10:40:10;;;;;;;;;;;;;;;20.29;64.88;-18572.59;5003243;28;19972;-86
2023/05/20 10:42:35;;;;;;;;;;;;;;;20.38;65.78;-18575.03;4993943;28;19926;-86
2023/05/20 10:45:02;;;;;;;;;;;;;;;20.48;61.80;-18577.75;4988595;28;19921;-89
2023/05/20 10:47:50;;;;;;;;;;;;;;;20.65;63.39;-18582.09;4984370;28;20003;-86
2023/05/20 10:50:26;;;;;;;;;;;;;;;20.67;67.38;-18582.78;5007409;23;20112;-79
2023/05/20 10:52:52;;;;;;;;;;;;;;;20.62;60.48;-18581.44;5001477;28;19922;-79
2023/05/20 10:55:21;;;;;;;;;;;;;;;20.64;62.39;-18581.97;4996565;28;19932;-78
2023/05/20 10:57:46;;;;;;;;;;;;;;;20.65;64.14;-18582.09;4996031;28;19956;-78
2023/05/20 11:00:12;;;;;;;;;;;;;;;20.64;64.05;-18581.84;5001608;28;20431;-79
2023/05/20 11:02:38;;;;;;;;;;;;;;;20.87;62.03;-18588.09;5003022;28;19922;-79
2023/05/20 11:05:04;;;;;;;;;;;;;;;21.27;65.67;-18598.69;5010536;28;19925;-79
2023/05/20 11:07:30;;;;;;;;;;;;;;;21.32;64.17;-18599.91;5005168;28;19925;-79
2023/05/20 11:09:56;;;;;;;;;;;;;;;21.60;63.41;-18607.41;5007395;28;19921;-79
2023/05/20 11:12:22;;;;;;;;;;;;;;;21.74;61.29;-18611.22;5009012;28;19971;-79
2023/05/20 11:14:48;;;;;;;;;;;;;;;21.76;59.78;-18611.75;5008201;28;19957;-79
2023/05/20 11:17:14;;;;;;;;;;;;;;;21.69;58.25;-18609.72;5008864;28;20396;-79
2023/05/20 11:19:40;;;;;;;;;;;;;;;21.93;60.18;-18616.09;5000980;28;19936;-79
2023/05/20 11:22:08;;;;;;;;;;;;;;;21.97;56.11;-18617.31;5008059;28;19929;-79
2023/05/20 11:24:33;;;;;;;;;;;;;;;22.11;54.45;-18621.00;5010647;28;20561;-79
2023/05/20 11:27:00;;;;;;;;;;;;;;;21.83;54.05;-18613.53;5009119;28;19924;-79
2023/05/20 11:29:25;;;;;;;;;;;;;;;21.79;57.87;-18612.56;4997982;28;19928;-79
2023/05/20 11:31:51;;;;;;;;;;;;;;;21.92;55.07;-18615.81;4998798;28;19992;-79
2023/05/20 11:34:18;;;;;;;;;;;;;;;21.90;59.31;-18615.44;4999240;28;19925;-79
2023/05/20 11:36:44;;;;;;;;;;;;;;;22.07;55.74;-18619.91;5000619;28;20016;-79
2023/05/20 11:39:10;;;;;;;;;;;;;;;22.10;56.09;-18620.72;4999134;28;19960;-79
2023/05/20 11:41:36;;;;;;;;;;;;;;;22.22;54.14;-18623.97;5009303;28;19921;-80
2023/05/20 11:44:01;;;;;;;;;;;;;;;22.25;51.60;-18624.66;4999028;28;20624;-80
2023/05/20 11:46:26;;;;;;;;;;;;;;;22.31;50.83;-18626.28;4995779;28;19940;-80
2023/05/20 11:48:55;;;;;;;;;;;;;;;22.16;53.54;-18622.34;5000112;28;20332;-80
2023/05/20 11:51:25;;;;;;;;;;;;;;;22.37;53.08;-18627.78;5007008;28;19961;-80
2023/05/20 11:53:51;;;;;;;;;;;;;;;22.51;51.57;-18631.59;5023814;28;19926;-80
2023/05/20 11:56:16;;;;;;;;;;;;;;;22.62;51.63;-18634.56;4998077;28;19933;-80
2023/05/20 11:58:42;;;;;;;;;;;;;;;22.49;52.56;-18631.03;5009560;28;19917;-80
2023/05/20 12:01:07;;;;;;;;;;;;;;;22.48;55.53;-18630.78;4999842;28;19925;-79
2023/05/20 12:03:32;;;;;;;;;;;;;;;22.95;52.29;-18643.25;5004791;28;19921;-79
2023/05/20 12:06:01;;;;;;;;;;;;;;;23.20;53.03;-18649.91;4993102;28;20313;-79
2023/05/20 12:08:26;;;;;;;;;;;;;;;23.03;48.19;-18645.31;4996700;28;19985;-78
2023/05/20 12:10:51;;;;;;;;;;;;;;;23.06;48.90;-18646.25;5006835;28;20021;-78
2023/05/20 12:13:18;;;;;;;;;;;;;;;23.19;50.40;-18649.78;5003666;28;19924;-78
2023/05/20 12:15:43;;;;;;;;;;;;;;;23.40;47.91;-18655.34;5009455;28;19921;-78
2023/05/20 12:18:08;;;;;;;;;;;;;;;23.51;48.17;-18658.06;5008064;28;20000;-78
2023/05/20 12:20:35;;;;;;;;;;;;;;;23.37;47.68;-18654.53;5007508;28;19917;-79
2023/05/20 12:23:00;;;;;;;;;;;;;;;23.58;48.89;-18660.09;5000953;28;19917;-79
2023/05/20 12:25:25;;;;;;;;;;;;;;;23.73;46.78;-18663.88;5003387;28;19976;-78